Time;durP1;ratioP1;P1;durP2;ratioP2;P2;SDS_P1;SDS_P2;PMS_P1;PMS_P2;Temp;Humidity;BMP_temperature;BMP_pressure;BME280_temperature;BME280_humidity;BME280_pressure;Samples;Min_cycle;Max_cycle;Signal;HPM_P1;HPM_P2
2022/06/25 00:09:01;;;;;;;2.00;1.90;;;20.30;94.60;;;;;;20937141;28;20242;-75
2022/06/25 00:19:03;;;;;;;6.33;2.10;;;20.30;94.40;;;;;;20919046;28;20211;-76
2022/06/25 00:29:05;;;;;;;2.53;2.10;;;20.20;94.30;;;;;;20917626;28;20267;-76
2022/06/25 00:39:07;;;;;;;2.50;2.30;;;20.10;94.40;;;;;;20919168;28;20215;-73
2022/06/25 00:49:09;;;;;;;2.37;2.17;;;20.10;94.60;;;;;;20918961;28;20235;-72
2022/06/25 00:59:12;;;;;;;2.50;2.30;;;20.00;94.70;;;;;;20917067;28;20217;-68
2022/06/25 01:09:14;;;;;;;4.40;2.67;;;20.00;94.80;;;;;;20916039;28;20241;-69
2022/06/25 01:19:16;;;;;;;2.87;2.40;;;19.80;95.00;;;;;;20933660;28;20666;-77
2022/06/25 01:29:18;;;;;;;2.90;2.53;;;19.80;95.30;;;;;;20934243;28;20704;-77
2022/06/25 01:39:21;;;;;;;2.80;2.40;;;19.70;95.40;;;;;;20915407;28;20233;-76
2022/06/25 01:49:23;;;;;;;2.70;2.50;;;19.70;95.50;;;;;;20914481;28;20247;-72
2022/06/25 01:59:26;;;;;;;3.33;2.73;;;19.70;95.60;;;;;;20925950;28;20211;-74
2022/06/25 02:09:27;;;;;;;4.43;3.17;;;19.60;95.70;;;;;;20952479;28;20283;-76
2022/06/25 02:19:29;;;;;;;4.20;2.77;;;19.60;95.90;;;;;;20913286;28;20206;-76
2022/06/25 02:29:31;;;;;;;3.47;3.13;;;19.70;96.00;;;;;;20911854;28;20232;-73
2022/06/25 02:39:33;;;;;;;4.30;3.07;;;19.50;96.10;;;;;;20911693;28;20748;-73
2022/06/25 02:49:35;;;;;;;3.00;2.70;;;19.40;96.20;;;;;;20911319;28;20295;-70
2022/06/25 02:59:37;;;;;;;3.27;2.97;;;19.30;96.50;;;;;;20910919;28;20214;-76
2022/06/25 03:09:39;;;;;;;4.83;3.50;;;19.20;96.80;;;;;;20911090;28;20243;-73
2022/06/25 03:19:42;;;;;;;5.40;2.80;;;19.20;97.00;;;;;;20917248;28;20244;-72
2022/06/25 03:29:43;;;;;;;4.07;2.80;;;19.10;97.00;;;;;;20907304;28;20246;-70
2022/06/25 03:39:45;;;;;;;3.23;3.00;;;19.20;97.10;;;;;;20924646;28;20573;-70
2022/06/25 03:49:47;;;;;;;5.37;2.90;;;19.20;97.10;;;;;;20923498;28;20247;-72
2022/06/25 03:59:48;;;;;;;3.50;3.10;;;19.20;97.00;;;;;;20923028;28;20698;-74
2022/06/25 04:09:50;;;;;;;7.03;3.20;;;19.10;97.10;;;;;;20921207;28;20242;-73
2022/06/25 04:19:52;;;;;;;6.67;3.60;;;19.20;97.20;;;;;;20921029;28;20214;-74
2022/06/25 04:29:54;;;;;;;3.97;3.40;;;19.20;97.10;;;;;;20919483;28;20241;-76
2022/06/25 04:39:55;;;;;;;4.10;3.17;;;19.20;97.10;;;;;;20920548;28;20235;-69
2022/06/25 04:49:57;;;;;;;6.07;4.07;;;19.30;97.40;;;;;;20919265;28;20237;-75
2022/06/25 04:59:59;;;;;;;5.00;4.07;;;19.40;97.30;;;;;;20917670;28;20215;-75
2022/06/25 05:10:00;;;;;;;4.93;3.90;;;19.60;97.30;;;;;;20916271;28;20238;-71
2022/06/25 05:20:02;;;;;;;4.87;3.20;;;19.80;97.30;;;;;;20915666;28;20674;-74
2022/06/25 05:30:07;;;;;;;5.77;3.80;;;20.00;97.20;;;;;;20916601;28;20297;-71
2022/06/25 05:40:09;;;;;;;6.53;3.30;;;20.30;97.10;;;;;;20905335;28;20663;-73
2022/06/25 05:50:11;;;;;;;4.83;2.53;;;20.40;96.90;;;;;;20831718;28;20305;-70
2022/06/25 06:00:13;;;;;;;3.97;2.50;;;20.30;96.50;;;;;;20861710;28;20215;-63
2022/06/25 06:10:16;;;;;;;7.47;2.90;;;20.40;96.70;;;;;;20857303;28;20240;-74
2022/06/25 06:20:17;;;;;;;5.30;2.23;;;20.60;96.60;;;;;;20830040;28;20215;-76
2022/06/25 06:30:19;;;;;;;3.33;2.47;;;20.70;96.40;;;;;;20829671;28;20733;-75
2022/06/25 06:40:21;;;;;;;2.60;2.30;;;20.70;96.00;;;;;;20840561;28;20242;-77
2022/06/25 06:50:23;;;;;;;3.57;2.00;;;21.10;95.90;;;;;;20894363;28;20235;-77
2022/06/25 07:00:24;;;;;;;3.73;2.30;;;21.40;95.30;;;;;;20928711;28;20211;-73
2022/06/25 07:10:28;;;;;;;2.47;2.27;;;21.80;94.70;;;;;;20929891;28;20747;-72
2022/06/25 07:20:30;;;;;;;7.30;2.20;;;21.30;94.10;;;;;;20939116;28;20298;-76
2022/06/25 07:30:32;;;;;;;3.30;2.10;;;21.70;94.20;;;;;;20957506;28;20280;-78
2022/06/25 07:40:33;;;;;;;2.30;2.10;;;21.70;93.70;;;;;;20950842;28;20370;-78
2022/06/25 08:00:56;;;;;;;4.33;2.40;;;22.00;92.70;;;;;;20922627;28;20574;-80
2022/06/25 08:10:58;;;;;;;5.07;2.77;;;22.00;92.50;;;;;;20923506;28;20667;-73
2022/06/25 08:21:00;;;;;;;3.50;2.43;;;22.20;92.30;;;;;;20920598;28;20211;-77
2022/06/25 08:31:02;;;;;;;14.93;10.73;;;22.60;92.00;;;;;;20920542;28;20214;-77
2022/06/25 08:41:04;;;;;;;3.90;2.83;;;23.00;91.10;;;;;;20920479;28;20285;-74
2022/06/25 08:51:08;;;;;;;4.30;2.90;;;23.00;90.40;;;;;;20919665;28;20663;-74
2022/06/25 09:01:10;;;;;;;4.43;3.50;;;23.20;89.40;;;;;;20916318;28;20251;-75
2022/06/25 09:11:12;;;;;;;2.97;2.30;;;23.20;86.30;;;;;;20918570;28;20216;-76
2022/06/25 09:21:14;;;;;;;4.77;2.70;;;23.20;85.70;;;;;;20915882;28;20204;-71
2022/06/25 09:31:35;;;;;;;5.03;3.07;;;23.60;84.50;;;;;;20916012;28;20266;-73
2022/06/25 09:41:53;;;;;;;3.10;2.00;;;23.60;83.10;;;;;;20899257;28;20248;-76
2022/06/25 09:52:00;;;;;;;2.20;2.00;;;24.10;81.50;;;;;;20915702;28;20243;-81
2022/06/25 10:02:04;;;;;;;2.17;1.90;;;24.10;79.20;;;;;;20914134;28;20235;-79
2022/06/25 10:12:06;;;;;;;4.67;2.03;;;24.10;78.40;;;;;;20911218;28;20222;-76
2022/06/25 10:22:08;;;;;;;3.73;1.97;;;24.40;77.10;;;;;;20913060;28;20234;-71
2022/06/25 10:32:16;;;;;;;2.10;1.77;;;24.30;74.80;;;;;;20912414;28;20212;-76
2022/06/25 10:52:38;;;;;;;2.63;1.83;;;24.40;74.00;;;;;;20912439;28;20200;-77
2022/06/25 11:02:41;;;;;;;3.63;1.70;;;24.60;74.60;;;;;;20912914;28;20742;-69
2022/06/25 11:12:48;;;;;;;2.17;1.90;;;25.00;73.70;;;;;;20943145;28;20691;-73
2022/06/25 11:22:51;;;;;;;7.23;2.40;;;25.10;72.20;;;;;;20912068;28;20243;-76
2022/06/25 11:32:53;;;;;;;3.80;2.20;;;25.20;71.70;;;;;;20910809;28;20231;-71
2022/06/25 11:43:06;;;;;;;2.80;1.97;;;25.10;71.70;;;;;;20919319;28;20245;-74
2022/06/25 11:53:08;;;;;;;4.33;3.10;;;25.30;71.50;;;;;;20939554;28;20206;-64
2022/06/25 12:03:10;;;;;;;3.73;1.80;;;25.70;69.80;;;;;;21005486;28;20230;-69
2022/06/25 12:13:19;;;;;;;3.73;1.97;;;26.20;68.80;;;;;;21001524;28;20655;-66
2022/06/25 12:23:20;;;;;;;1.80;1.50;;;26.70;67.10;;;;;;21010791;28;20322;-68
2022/06/25 12:33:28;;;;;;;2.30;1.80;;;26.70;65.40;;;;;;21004957;28;20195;-70
2022/06/25 12:43:43;;;;;;;4.70;2.33;;;26.40;65.10;;;;;;21002610;28;20239;-67
2022/06/25 12:53:45;;;;;;;8.10;2.57;;;26.10;64.60;;;;;;20988246;28;20226;-70
2022/06/25 13:03:48;;;;;;;2.47;1.80;;;25.90;65.20;;;;;;20979357;28;20329;-69
2022/06/25 13:13:51;;;;;;;2.50;1.80;;;26.10;65.40;;;;;;20918087;28;20254;-69
2022/06/25 13:23:52;;;;;;;2.17;1.80;;;26.40;64.80;;;;;;20923401;28;20326;-76
2022/06/25 13:33:54;;;;;;;5.87;1.63;;;26.60;64.00;;;;;;20915741;28;20203;-75
2022/06/25 13:43:56;;;;;;;4.13;1.90;;;26.80;62.70;;;;;;20955968;28;20605;-74
2022/06/25 13:53:58;;;;;;;2.43;2.00;;;26.70;60.50;;;;;;20997215;28;20600;-78
2022/06/25 14:04:00;;;;;;;4.20;2.10;;;26.70;59.00;;;;;;20995693;28;20281;-73
2022/06/25 14:14:02;;;;;;;4.40;1.80;;;26.70;59.60;;;;;;20990070;28;20229;-73
2022/06/25 14:24:03;;;;;;;3.53;2.00;;;26.70;59.00;;;;;;20994805;28;20242;-74
2022/06/25 14:34:05;;;;;;;3.30;1.50;;;26.80;58.30;;;;;;20994942;28;20730;-73
2022/06/25 14:44:07;;;;;;;6.63;2.10;;;27.00;57.40;;;;;;20976261;28;20239;-73
2022/06/25 14:54:09;;;;;;;2.60;2.03;;;26.90;57.60;;;;;;20994592;28;20203;-73
2022/06/25 15:04:11;;;;;;;3.77;2.00;;;27.20;57.30;;;;;;20993345;28;20300;-70
2022/06/25 15:14:13;;;;;;;21.07;1.90;;;27.30;57.70;;;;;;20999035;28;20613;-76
2022/06/25 15:24:14;;;;;;;3.93;1.47;;;27.70;58.20;;;;;;21008829;28;20235;-80
2022/06/25 15:34:16;;;;;;;2.67;1.80;;;27.90;57.00;;;;;;21007618;28;20210;-74
2022/06/25 15:44:19;;;;;;;2.50;1.53;;;27.70;57.30;;;;;;21006106;28;20304;-75
2022/06/25 15:54:20;;;;;;;3.43;1.50;;;27.80;56.50;;;;;;20988366;28;20263;-73
2022/06/25 16:04:22;;;;;;;1.33;1.20;;;28.00;55.40;;;;;;21009708;28;20704;-75
2022/06/25 16:14:27;;;;;;;1.53;1.43;;;27.80;55.00;;;;;;20950305;28;20246;-74
2022/06/25 16:24:29;;;;;;;4.22;1.60;;;27.50;55.40;;;;;;20921173;28;20246;-71
2022/06/25 16:34:31;;;;;;;3.08;1.50;;;28.30;54.80;;;;;;20920432;28;20200;-73
2022/06/25 16:44:33;;;;;;;1.83;1.53;;;27.90;55.40;;;;;;20919798;28;20326;-71
2022/06/25 16:54:35;;;;;;;2.40;1.67;;;27.30;56.10;;;;;;20919182;28;20212;-72
2022/06/25 17:04:37;;;;;;;3.93;1.50;;;27.10;56.20;;;;;;20961950;28;20357;-71
2022/06/25 17:14:38;;;;;;;3.23;1.57;;;27.00;56.20;;;;;;21002754;28;20209;-72
2022/06/25 17:24:40;;;;;;;1.60;1.50;;;27.10;56.10;;;;;;21000448;28;20671;-73
2022/06/25 17:34:42;;;;;;;1.97;1.30;;;26.90;56.10;;;;;;20980171;28;20211;-74
2022/06/25 17:44:43;;;;;;;2.08;1.40;;;27.00;55.80;;;;;;20997161;28;20243;-73
2022/06/25 17:54:45;;;;;;;2.07;1.40;;;28.20;54.50;;;;;;20996299;28;20207;-75
2022/06/25 18:04:47;;;;;;;3.63;1.70;;;27.80;54.50;;;;;;20993201;28;20241;-77
2022/06/25 18:14:49;;;;;;;6.80;1.60;;;27.80;54.10;;;;;;20987503;28;20234;-73
2022/06/25 18:24:51;;;;;;;3.50;1.60;;;27.20;54.30;;;;;;20994738;28;20235;-73
2022/06/25 18:34:54;;;;;;;7.60;2.23;;;26.80;55.00;;;;;;20995195;28;20210;-70
2022/06/25 18:44:56;;;;;;;3.47;1.73;;;26.50;55.30;;;;;;20999782;28;20769;-71
2022/06/25 18:54:57;;;;;;;11.40;2.47;;;26.30;56.30;;;;;;21009860;28;20681;-68
2022/06/25 19:05:00;;;;;;;7.67;1.70;;;26.10;56.70;;;;;;21011204;28;20318;-71
2022/06/25 19:15:02;;;;;;;2.60;1.70;;;26.00;57.50;;;;;;21009652;28;20684;-72
2022/06/25 19:25:05;;;;;;;3.07;2.00;;;25.90;57.70;;;;;;21009263;28;20231;-68
2022/06/25 19:35:12;;;;;;;1.93;1.60;;;25.80;57.90;;;;;;21001950;28;20489;-70
2022/06/25 19:45:22;;;;;;;3.57;2.93;;;25.60;58.60;;;;;;20949258;28;20249;-79
2022/06/25 19:55:23;;;;;;;2.90;1.83;;;25.30;59.50;;;;;;20941787;28;20210;-76
2022/06/25 20:05:25;;;;;;;5.27;2.50;;;25.10;60.20;;;;;;21000554;28;20300;-78
2022/06/25 20:15:27;;;;;;;3.27;2.30;;;24.90;60.70;;;;;;21000065;28;20215;-78
2022/06/25 20:25:29;;;;;;;3.80;2.60;;;24.70;62.10;;;;;;20999912;28;20239;-77
2022/06/25 20:35:32;;;;;;;2.80;1.90;;;24.40;63.00;;;;;;20946041;28;20250;-76
2022/06/25 20:45:35;;;;;;;5.23;2.30;;;24.10;63.80;;;;;;20915159;28;1027587;-74
2022/06/25 20:55:37;;;;;;;3.03;2.57;;;23.80;65.00;;;;;;21005069;28;20211;-76
2022/06/25 21:15:59;;;;;;;3.07;2.60;;;23.30;66.60;;;;;;21009582;28;20333;-78
2022/06/25 21:26:01;;;;;;;4.73;2.20;;;23.20;67.60;;;;;;21003749;28;20287;-69
2022/06/25 21:36:03;;;;;;;6.43;2.60;;;23.20;68.30;;;;;;21002026;28;20207;-69
2022/06/25 21:46:05;;;;;;;4.00;2.70;;;22.90;69.70;;;;;;21002067;28;20242;-70
2022/06/25 21:56:09;;;;;;;3.07;2.77;;;22.70;71.20;;;;;;21000456;28;20211;-71
2022/06/25 22:06:11;;;;;;;5.73;2.90;;;22.60;72.30;;;;;;20997028;28;20245;-70
2022/06/25 22:16:13;;;;;;;8.00;3.10;;;22.40;73.40;;;;;;20961872;28;20203;-71
2022/06/25 22:26:14;;;;;;;2.90;2.60;;;22.20;74.30;;;;;;20995634;28;20227;-71
2022/06/25 22:36:17;;;;;;;5.97;3.10;;;22.20;74.80;;;;;;20995410;28;20266;-75
2022/06/25 22:46:18;;;;;;;3.63;2.60;;;22.00;76.10;;;;;;20995287;28;20249;-70
2022/06/25 22:56:21;;;;;;;2.93;2.63;;;21.90;77.70;;;;;;20995012;28;20655;-71
2022/06/25 23:06:26;;;;;;;3.40;2.80;;;21.70;79.00;;;;;;21047261;28;20245;-72
2022/06/25 23:16:27;;;;;;;5.23;3.17;;;21.40;80.10;;;;;;21043242;28;20217;-71
2022/06/25 23:26:29;;;;;;;3.50;3.00;;;21.30;81.10;;;;;;21048792;28;20232;-71
2022/06/25 23:36:31;;;;;;;5.33;2.83;;;21.10;81.90;;;;;;21026277;28;20301;-74
2022/06/25 23:46:33;;;;;;;4.27;3.40;;;21.10;82.50;;;;;;21021291;28;20246;-76
2022/06/25 23:56:34;;;;;;;5.20;3.00;;;21.00;83.30;;;;;;21022782;28;20252;-72
